createdAt,value
2023-02-08T00:02:27.684Z,15.23
2023-02-08T00:04:56.232Z,14.60
2023-02-08T00:07:25.867Z,14.67
2023-02-08T00:09:54.748Z,15.00
2023-02-08T00:12:23.214Z,15.07
2023-02-08T00:14:53.669Z,14.57
2023-02-08T00:17:22.971Z,15.07
2023-02-08T00:19:52.164Z,14.37
2023-02-08T00:22:21.093Z,16.30
2023-02-08T00:24:51.222Z,14.60
2023-02-08T00:27:22.068Z,15.07
2023-02-08T00:29:53.028Z,14.00
2023-02-08T00:32:22.069Z,15.17
2023-02-08T00:34:52.696Z,14.50
2023-02-08T00:37:22.063Z,14.80
2023-02-08T00:39:52.102Z,14.47
2023-02-08T00:42:21.416Z,15.00
2023-02-08T00:44:50.865Z,14.37
2023-02-08T00:47:21.312Z,15.00
2023-02-08T00:49:50.318Z,14.43
2023-02-08T00:52:20.424Z,14.40
2023-02-08T00:54:49.913Z,14.43
2023-02-08T00:57:19.342Z,14.37
2023-02-08T00:59:48.247Z,14.90
2023-02-08T01:02:18.048Z,14.17
2023-02-08T01:04:48.823Z,14.13
2023-02-08T01:07:18.203Z,14.63
2023-02-08T01:09:47.317Z,14.63
2023-02-08T01:12:15.994Z,15.27
2023-02-08T01:14:44.772Z,14.43
2023-02-08T01:17:13.688Z,13.80
2023-02-08T01:19:42.878Z,14.43
2023-02-08T01:22:13.111Z,14.57
2023-02-08T01:24:42.480Z,14.00
2023-02-08T01:27:12.322Z,13.77
2023-02-08T01:29:42.383Z,14.40
2023-02-08T01:32:15.347Z,14.57
2023-02-08T01:34:44.547Z,15.00
2023-02-08T01:37:15.330Z,14.87
2023-02-08T01:39:44.866Z,14.20
2023-02-08T01:42:16.474Z,14.80
2023-02-08T01:45:26.066Z,14.67
2023-02-08T01:48:04.943Z,14.50
2023-02-08T01:50:44.507Z,14.10
2023-02-08T01:53:16.264Z,13.73
2023-02-08T01:55:50.750Z,14.17
2023-02-08T01:58:21.809Z,14.00
2023-02-08T02:00:51.452Z,15.00
2023-02-08T02:03:24.142Z,14.10
2023-02-08T02:05:57.915Z,15.87
2023-02-08T02:08:29.477Z,14.47
2023-02-08T02:10:59.182Z,14.20
2023-02-08T02:13:32.779Z,14.00
2023-02-08T02:16:02.395Z,14.57
2023-02-08T02:18:35.149Z,14.27
2023-02-08T02:21:33.920Z,14.33
2023-02-08T02:25:06.147Z,15.13
2023-02-08T02:28:05.121Z,14.53
2023-02-08T02:31:35.109Z,14.53
2023-02-08T02:34:09.771Z,13.90
2023-02-08T02:36:50.841Z,14.13
2023-02-08T02:39:29.524Z,14.37
2023-02-08T02:42:22.602Z,14.40
2023-02-08T02:45:06.521Z,14.67
2023-02-08T02:47:44.450Z,14.07
2023-02-08T02:50:25.443Z,14.53
2023-02-08T02:53:05.726Z,14.07
2023-02-08T02:55:42.286Z,14.53
2023-02-08T02:58:14.051Z,14.87
2023-02-08T03:00:46.599Z,14.83
2023-02-08T03:03:24.552Z,14.40
2023-02-08T03:05:57.279Z,14.97
2023-02-08T03:09:00.738Z,14.73
2023-02-08T03:11:35.872Z,15.03
2023-02-08T03:14:31.016Z,14.63
2023-02-08T03:17:15.043Z,14.83
2023-02-08T03:19:54.653Z,14.70
2023-02-08T03:22:31.853Z,14.27
2023-02-08T03:25:11.669Z,14.77
2023-02-08T03:27:50.621Z,13.70
2023-02-08T03:30:28.214Z,14.30
2023-02-08T03:33:04.827Z,14.27
2023-02-08T03:35:41.446Z,13.83
2023-02-08T03:38:16.750Z,14.17
2023-02-08T03:40:50.216Z,13.50
2023-02-08T03:43:26.759Z,14.00
2023-02-08T03:46:03.628Z,13.93
2023-02-08T03:48:34.326Z,13.93
2023-02-08T03:51:06.136Z,13.30
2023-02-08T03:53:40.666Z,14.80
2023-02-08T03:56:18.319Z,13.70
2023-02-08T03:58:53.767Z,13.73
2023-02-08T04:01:31.020Z,13.03
2023-02-08T04:04:01.706Z,15.70
2023-02-08T04:06:33.193Z,13.40
2023-02-08T04:09:02.963Z,14.80
2023-02-08T04:11:32.679Z,14.03
2023-02-08T04:14:02.646Z,13.70
2023-02-08T04:16:32.345Z,13.90
2023-02-08T04:19:02.091Z,14.27
2023-02-08T04:21:33.646Z,13.97
2023-02-08T04:24:03.307Z,14.37
2023-02-08T04:26:33.020Z,13.93
2023-02-08T04:29:02.634Z,14.17
2023-02-08T04:31:32.364Z,14.40
2023-02-08T04:34:01.697Z,13.57
2023-02-08T04:36:32.621Z,13.50
2023-02-08T04:39:01.479Z,14.87
2023-02-08T04:41:30.650Z,13.83
2023-02-08T04:43:59.196Z,14.43
2023-02-08T04:46:28.082Z,14.30
2023-02-08T04:48:58.727Z,15.30
2023-02-08T04:51:27.597Z,13.90
2023-02-08T04:53:57.746Z,13.60
2023-02-08T04:56:26.346Z,15.13
2023-02-08T04:58:54.893Z,13.60
2023-02-08T05:01:24.150Z,14.27
2023-02-08T05:03:53.470Z,14.73
2023-02-08T05:06:22.748Z,14.60
2023-02-08T05:08:52.420Z,14.53
2023-02-08T05:11:24.707Z,14.27
2023-02-08T05:13:53.628Z,14.07
2023-02-08T05:16:22.419Z,14.10
2023-02-08T05:18:51.046Z,15.00
2023-02-08T05:21:19.697Z,15.90
2023-02-08T05:23:48.126Z,15.13
2023-02-08T05:26:16.591Z,13.80
2023-02-08T05:28:46.842Z,14.80
2023-02-08T05:31:19.377Z,13.87
2023-02-08T05:33:48.432Z,14.60
2023-02-08T05:36:17.178Z,13.80
2023-02-08T05:38:45.870Z,14.77
2023-02-08T05:41:14.316Z,13.87
2023-02-08T05:43:42.791Z,15.03
2023-02-08T05:46:12.795Z,14.60
2023-02-08T05:48:41.235Z,14.37
2023-02-08T05:51:10.016Z,14.80
2023-02-08T05:53:38.443Z,14.27
2023-02-08T05:56:07.676Z,14.43
2023-02-08T05:58:36.297Z,14.57
2023-02-08T06:01:10.555Z,15.10
2023-02-08T06:03:41.524Z,14.57
2023-02-08T06:06:11.300Z,14.40
2023-02-08T06:08:40.502Z,13.73
2023-02-08T06:11:09.224Z,14.77
2023-02-08T06:13:39.054Z,14.47
2023-02-08T06:16:08.761Z,13.90
2023-02-08T06:18:37.179Z,14.03
2023-02-08T06:21:07.415Z,14.60
2023-02-08T06:23:36.141Z,14.47
2023-02-08T06:26:04.666Z,14.53
2023-02-08T06:28:33.151Z,14.20
2023-02-08T06:31:01.734Z,14.93
2023-02-08T06:33:30.344Z,14.93
2023-02-08T06:35:58.793Z,14.27
2023-02-08T06:38:28.722Z,14.40
2023-02-08T06:40:57.189Z,13.80
2023-02-08T06:43:25.987Z,14.20
2023-02-08T06:45:55.493Z,13.97
2023-02-08T06:48:24.019Z,14.63
2023-02-08T06:50:53.885Z,14.47
2023-02-08T06:53:22.531Z,15.27
2023-02-08T06:55:52.856Z,14.67
2023-02-08T06:58:21.537Z,14.93
2023-02-08T07:00:50.045Z,15.07
2023-02-08T07:03:18.545Z,14.70
2023-02-08T07:06:03.480Z,13.80
2023-02-08T07:08:32.939Z,14.03
2023-02-08T07:11:08.949Z,13.80
2023-02-08T07:13:38.099Z,14.43
2023-02-08T07:16:07.891Z,14.50
2023-02-08T07:18:36.948Z,14.37
2023-02-08T07:21:06.183Z,14.33
2023-02-08T07:23:34.482Z,14.00
2023-02-08T07:26:06.977Z,15.10
2023-02-08T07:28:36.006Z,14.40
2023-02-08T07:31:07.417Z,14.50
2023-02-08T07:33:36.147Z,15.47
2023-02-08T07:36:05.412Z,15.83
2023-02-08T07:38:35.096Z,14.93
2023-02-08T07:41:07.669Z,14.60
2023-02-08T07:43:37.018Z,15.87
2023-02-08T07:46:08.777Z,15.57
2023-02-08T07:48:40.032Z,15.87
2023-02-08T07:51:09.248Z,15.43
2023-02-08T07:53:37.897Z,15.50
2023-02-08T07:56:10.356Z,15.13
2023-02-08T07:58:39.069Z,16.33
2023-02-08T08:01:21.424Z,14.80
2023-02-08T08:03:51.406Z,15.13
2023-02-08T08:06:20.457Z,14.87
2023-02-08T08:08:48.897Z,16.43
2023-02-08T08:11:22.349Z,15.40
2023-02-08T08:13:51.305Z,15.07
2023-02-08T08:16:20.535Z,15.73
2023-02-08T08:18:49.432Z,15.70
2023-02-08T08:21:18.412Z,15.60
2023-02-08T08:23:46.817Z,14.93
2023-02-08T08:26:19.176Z,14.20
2023-02-08T08:28:49.078Z,15.93
2023-02-08T08:31:21.207Z,15.43
2023-02-08T08:33:50.549Z,17.13
2023-02-08T08:36:19.093Z,15.63
2023-02-08T08:38:47.410Z,15.97
2023-02-08T08:41:18.987Z,15.17
2023-02-08T08:43:47.440Z,16.50
2023-02-08T08:46:16.865Z,15.80
2023-02-08T08:48:45.792Z,16.47
2023-02-08T08:51:15.138Z,16.43
2023-02-08T08:53:43.577Z,15.93
2023-02-08T08:56:12.170Z,16.63
2023-02-08T08:58:43.522Z,15.40
2023-02-08T09:01:13.992Z,16.10
2023-02-08T09:03:42.385Z,17.30
2023-02-08T09:06:10.772Z,17.23
2023-02-08T09:08:39.333Z,16.40
2023-02-08T09:11:08.735Z,16.93
2023-02-08T09:13:37.515Z,17.30
2023-02-08T09:16:10.863Z,18.03
2023-02-08T09:18:39.558Z,21.37
2023-02-08T09:21:09.014Z,17.60
2023-02-08T09:23:38.099Z,18.53
2023-02-08T09:26:08.712Z,19.17
2023-02-08T09:28:37.160Z,21.40
2023-02-08T09:31:11.187Z,24.73
2023-02-08T09:33:40.192Z,19.90
2023-02-08T09:36:09.910Z,20.57
2023-02-08T09:38:39.473Z,20.47
2023-02-08T09:41:26.151Z,21.60
2023-02-08T09:44:11.711Z,22.13
2023-02-08T09:46:46.866Z,27.17
2023-02-08T09:49:21.616Z,25.60
2023-02-08T09:51:56.302Z,27.00
2023-02-08T09:54:30.615Z,25.27
2023-02-08T09:57:01.518Z,30.37
2023-02-08T09:59:33.627Z,23.57
2023-02-08T10:02:16.117Z,21.83
2023-02-08T10:04:58.863Z,23.77
2023-02-08T10:07:27.960Z,22.00
2023-02-08T10:10:00.747Z,25.20
2023-02-08T10:12:40.451Z,25.17
2023-02-08T10:15:21.863Z,25.77
2023-02-08T10:18:30.678Z,24.83
2023-02-08T10:21:17.774Z,26.13
2023-02-08T10:24:08.361Z,25.20
2023-02-08T10:26:43.932Z,27.20
2023-02-08T10:29:52.463Z,25.17
2023-02-08T10:32:36.331Z,29.83
2023-02-08T10:35:12.045Z,21.10
2023-02-08T10:37:43.437Z,23.10
2023-02-08T10:40:31.984Z,26.87
2023-02-08T10:43:16.445Z,24.77
2023-02-08T10:45:54.072Z,26.20
2023-02-08T10:48:36.550Z,23.43
2023-02-08T10:51:17.859Z,19.87
2023-02-08T10:53:46.938Z,21.10
2023-02-08T10:56:38.458Z,21.83
2023-02-08T10:59:16.248Z,19.57
2023-02-08T11:01:48.646Z,23.40
2023-02-08T11:04:19.002Z,20.87
2023-02-08T11:06:51.817Z,20.80
2023-02-08T11:09:29.474Z,19.83
2023-02-08T11:12:00.445Z,18.03
2023-02-08T11:14:45.347Z,18.03
2023-02-08T11:17:29.751Z,21.27
2023-02-08T11:19:59.689Z,20.70
2023-02-08T11:22:32.245Z,19.70
2023-02-08T11:25:04.019Z,19.37
2023-02-08T11:27:36.316Z,21.73
2023-02-08T11:30:23.583Z,19.70
2023-02-08T11:33:19.186Z,21.00
2023-02-08T11:36:09.856Z,20.73
2023-02-08T11:38:44.244Z,19.23
2023-02-08T11:41:20.267Z,19.10
2023-02-08T11:43:59.977Z,18.07
2023-02-08T11:46:30.874Z,18.37
2023-02-08T11:48:59.485Z,54.07
2023-02-08T11:51:31.867Z,17.80
2023-02-08T11:54:02.997Z,18.17
2023-02-08T11:56:32.913Z,18.80
2023-02-08T11:59:07.782Z,16.87
2023-02-08T12:01:38.885Z,33.00
2023-02-08T12:04:11.054Z,37.03
2023-02-08T12:07:17.992Z,19.90
2023-02-08T12:10:12.988Z,20.37
2023-02-08T12:13:09.399Z,26.87
2023-02-08T12:15:58.153Z,17.10
2023-02-08T12:19:01.317Z,17.33
2023-02-08T12:21:38.434Z,16.60
2023-02-08T12:24:16.166Z,18.00
2023-02-08T12:27:03.304Z,20.20
2023-02-08T12:29:48.045Z,19.93
2023-02-08T12:32:34.923Z,28.90
2023-02-08T12:35:39.954Z,17.60
2023-02-08T12:38:40.745Z,23.30
2023-02-08T12:41:17.079Z,20.50
2023-02-08T12:43:58.705Z,19.97
2023-02-08T12:46:47.831Z,33.40
2023-02-08T12:49:44.377Z,24.10
2023-02-08T12:52:27.401Z,21.87
2023-02-08T12:55:01.863Z,18.30
2023-02-08T12:57:32.649Z,37.50
2023-02-08T13:00:08.278Z,26.10
2023-02-08T13:02:46.309Z,19.30
2023-02-08T13:05:20.620Z,18.70
2023-02-08T13:07:53.043Z,19.37
2023-02-08T13:10:28.626Z,18.57
2023-02-08T13:13:01.093Z,20.43
2023-02-08T13:15:39.650Z,21.30
2023-02-08T13:18:17.949Z,20.77
2023-02-08T13:20:50.026Z,21.50
2023-02-08T13:23:26.339Z,18.00
2023-02-08T13:25:58.456Z,20.50
2023-02-08T13:28:28.610Z,18.27
2023-02-08T13:31:03.911Z,27.87
2023-02-08T13:33:55.560Z,22.93
2023-02-08T13:36:32.710Z,21.27
2023-02-08T13:39:03.698Z,23.90
2023-02-08T13:41:33.745Z,20.47
2023-02-08T13:44:05.739Z,24.07
2023-02-08T13:46:46.097Z,31.20
2023-02-08T13:49:53.675Z,32.33
2023-02-08T13:52:49.115Z,19.30
2023-02-08T13:55:53.497Z,26.63
2023-02-08T13:59:04.212Z,26.80
2023-02-08T14:01:35.956Z,27.23
2023-02-08T14:04:33.350Z,17.53
2023-02-08T14:07:08.103Z,20.07
2023-02-08T14:09:49.361Z,25.50
2023-02-08T14:12:29.104Z,23.00
2023-02-08T14:15:30.557Z,18.10
2023-02-08T14:18:00.847Z,33.30
2023-02-08T14:20:36.529Z,46.17
2023-02-08T14:23:08.858Z,74.03
2023-02-08T14:25:45.138Z,66.23
2023-02-08T14:28:31.542Z,48.53
2023-02-08T14:31:07.115Z,37.83
2023-02-08T14:33:38.410Z,42.20
2023-02-08T14:36:26.635Z,25.20
2023-02-08T14:39:08.755Z,26.20
2023-02-08T14:41:47.616Z,23.10
2023-02-08T14:44:59.172Z,22.93
2023-02-08T14:47:55.009Z,26.00
2023-02-08T14:50:29.140Z,21.13
2023-02-08T14:53:08.838Z,22.87
2023-02-08T14:55:47.306Z,29.03
2023-02-08T14:58:26.315Z,21.90
2023-02-08T15:00:57.910Z,22.17
2023-02-08T15:03:31.747Z,19.47
2023-02-08T15:06:37.355Z,18.47
2023-02-08T15:09:15.602Z,19.00
2023-02-08T15:11:44.132Z,19.73
2023-02-08T15:15:27.989Z,28.90
2023-02-08T15:17:57.125Z,18.13
2023-02-08T15:20:28.261Z,23.23
2023-02-08T15:23:01.889Z,16.80
2023-02-08T15:25:33.723Z,16.37
2023-02-08T15:28:04.925Z,17.30
2023-02-08T15:30:36.378Z,27.47
2023-02-08T15:33:11.018Z,19.73
2023-02-08T15:35:39.636Z,17.10
2023-02-08T15:38:17.878Z,18.43
2023-02-08T15:41:05.475Z,30.87
2023-02-08T15:43:34.945Z,18.80
2023-02-08T15:46:06.159Z,18.93
2023-02-08T15:48:43.851Z,17.00
2023-02-08T15:51:14.734Z,26.83
2023-02-08T15:53:47.734Z,17.40
2023-02-08T15:56:35.807Z,16.80
2023-02-08T15:59:08.969Z,21.57
2023-02-08T16:01:37.431Z,19.20
2023-02-08T16:04:12.340Z,17.27
2023-02-08T16:06:48.024Z,21.10
2023-02-08T16:09:21.936Z,24.70
2023-02-08T16:11:52.705Z,23.90
2023-02-08T16:14:27.868Z,22.70
2023-02-08T16:16:59.409Z,23.23
2023-02-08T16:19:30.612Z,19.30
2023-02-08T16:22:23.066Z,25.83
2023-02-08T16:24:51.455Z,23.57
2023-02-08T16:27:27.117Z,23.60
2023-02-08T16:29:56.083Z,20.37
2023-02-08T16:32:30.670Z,20.53
2023-02-08T16:35:01.390Z,20.00
2023-02-08T16:37:32.802Z,19.20
2023-02-08T16:40:02.452Z,21.30
2023-02-08T16:42:35.939Z,20.63
2023-02-08T16:45:17.366Z,21.83
2023-02-08T16:47:50.890Z,19.00
2023-02-08T16:50:21.851Z,21.27
2023-02-08T16:52:54.173Z,22.27
2023-02-08T16:55:25.795Z,21.80
2023-02-08T16:57:57.793Z,20.57
2023-02-08T17:00:29.721Z,21.10
2023-02-08T17:02:59.136Z,21.07
2023-02-08T17:05:31.804Z,21.23
2023-02-08T17:08:00.842Z,19.40
2023-02-08T17:10:31.745Z,19.90
2023-02-08T17:13:19.367Z,18.03
2023-02-08T17:15:49.689Z,19.03
2023-02-08T17:18:18.243Z,20.13
2023-02-08T17:20:46.691Z,20.00
2023-02-08T17:23:16.461Z,18.97
2023-02-08T17:25:45.569Z,20.13
2023-02-08T17:28:19.374Z,22.50
2023-02-08T17:30:49.498Z,19.57
2023-02-08T17:33:21.426Z,18.90
2023-02-08T17:35:53.905Z,21.83
2023-02-08T17:38:22.813Z,19.77
2023-02-08T17:40:51.526Z,19.37
2023-02-08T17:43:23.205Z,18.53
2023-02-08T17:45:51.630Z,20.97
2023-02-08T17:48:20.057Z,20.70
2023-02-08T17:50:51.058Z,19.70
2023-02-08T17:53:20.385Z,19.40
2023-02-08T17:55:48.903Z,17.63
2023-02-08T17:58:17.654Z,17.57
2023-02-08T18:00:47.485Z,17.63
2023-02-08T18:03:17.257Z,19.23
2023-02-08T18:05:45.759Z,18.27
2023-02-08T18:08:14.306Z,16.80
2023-02-08T18:10:42.929Z,16.37
2023-02-08T18:13:11.410Z,16.50
2023-02-08T18:15:39.821Z,15.73
2023-02-08T18:18:09.647Z,17.23
2023-02-08T18:20:38.076Z,18.30
2023-02-08T18:23:06.397Z,20.80
2023-02-08T18:25:34.819Z,17.93
2023-02-08T18:28:03.231Z,17.53
2023-02-08T18:30:31.599Z,16.63
2023-02-08T18:32:59.946Z,16.97
2023-02-08T18:35:30.830Z,17.90
2023-02-08T18:37:59.203Z,17.87
2023-02-08T18:40:27.539Z,16.93
2023-02-08T18:42:55.960Z,16.83
2023-02-08T18:45:24.423Z,16.27
2023-02-08T18:47:52.796Z,17.70
2023-02-08T18:50:21.342Z,17.57
2023-02-08T18:52:51.012Z,16.63
2023-02-08T18:55:19.506Z,16.20
2023-02-08T18:57:48.866Z,16.90
2023-02-08T19:00:18.059Z,16.43
2023-02-08T19:02:46.885Z,18.10
2023-02-08T19:05:15.261Z,18.03
2023-02-08T19:07:43.609Z,16.73
2023-02-08T19:10:13.370Z,17.57
2023-02-08T19:12:41.896Z,17.10
2023-02-08T19:15:11.046Z,18.50
2023-02-08T19:17:39.452Z,16.67
2023-02-08T19:20:09.607Z,18.60
2023-02-08T19:22:37.971Z,17.50
2023-02-08T19:25:07.282Z,19.60
2023-02-08T19:27:37.692Z,18.47
2023-02-08T19:30:07.349Z,18.63
2023-02-08T19:32:35.732Z,17.33
2023-02-08T19:35:04.080Z,16.43
2023-02-08T19:37:32.404Z,17.50
2023-02-08T19:40:00.823Z,16.90
2023-02-08T19:42:29.176Z,18.70
2023-02-08T19:44:58.843Z,17.23
2023-02-08T19:47:48.409Z,15.97
2023-02-08T19:50:15.812Z,15.60
2023-02-08T19:52:44.212Z,15.73
2023-02-08T19:55:12.619Z,17.60
2023-02-08T19:57:41.382Z,16.03
2023-02-08T20:00:22.961Z,17.40
2023-02-08T20:02:52.121Z,16.30
2023-02-08T20:05:20.495Z,16.00
2023-02-08T20:07:48.850Z,15.67
2023-02-08T20:10:17.456Z,16.10
2023-02-08T20:12:45.855Z,17.03
2023-02-08T20:15:15.594Z,15.30
2023-02-08T20:17:44.642Z,15.10
2023-02-08T20:20:13.421Z,16.00
2023-02-08T20:22:41.785Z,16.97
2023-02-08T20:25:10.126Z,15.17
2023-02-08T20:27:38.535Z,16.30
2023-02-08T20:30:08.234Z,16.10
2023-02-08T20:32:37.974Z,15.10
2023-02-08T20:35:07.266Z,15.60
2023-02-08T20:37:35.640Z,16.30
2023-02-08T20:40:04.764Z,16.53
2023-02-08T20:42:33.191Z,17.33
2023-02-08T20:45:01.546Z,16.10
2023-02-08T20:47:31.938Z,17.87
2023-02-08T20:50:17.734Z,16.30
2023-02-08T20:52:55.475Z,15.67
2023-02-08T20:55:25.017Z,21.50
2023-02-08T20:58:11.174Z,18.07
2023-02-08T21:01:30.698Z,19.03
2023-02-08T21:04:08.560Z,16.80
2023-02-08T21:06:53.772Z,25.80
2023-02-08T21:09:39.403Z,23.10
2023-02-08T21:12:52.369Z,23.53
2023-02-08T21:15:29.478Z,17.37
2023-02-08T21:18:31.243Z,16.57
2023-02-08T21:24:48.416Z,15.83
2023-02-08T21:30:49.694Z,15.73
2023-02-08T21:33:51.274Z,17.10
2023-02-08T21:36:38.993Z,16.40
2023-02-08T21:39:22.273Z,16.47
2023-02-08T21:45:43.346Z,16.63
2023-02-08T21:49:05.616Z,16.77
2023-02-08T21:51:57.823Z,18.27
2023-02-08T21:54:44.826Z,16.10
2023-02-08T21:57:24.616Z,17.03
2023-02-08T22:00:12.419Z,15.17
2023-02-08T22:02:50.978Z,20.10
2023-02-08T22:09:32.289Z,17.03
2023-02-08T22:12:23.873Z,17.37
2023-02-08T22:15:01.291Z,17.50
2023-02-08T22:17:33.586Z,18.40
2023-02-08T22:27:11.515Z,17.77
2023-02-08T22:31:05.932Z,17.63
2023-02-08T23:13:10.262Z,15.33
2023-02-08T23:16:06.059Z,17.17
2023-02-08T23:22:08.058Z,17.73
2023-02-08T23:25:16.939Z,18.20
2023-02-08T23:33:46.508Z,17.77
